createdAt,value
2022-12-05T00:01:28.226Z,12.25
2022-12-05T00:03:57.750Z,11.23
2022-12-05T00:06:25.771Z,11.65
2022-12-05T00:08:52.571Z,10.75
2022-12-05T00:11:21.992Z,11.80
2022-12-05T00:13:49.923Z,12.13
2022-12-05T00:16:19.193Z,10.90
2022-12-05T00:18:46.566Z,12.85
2022-12-05T00:21:24.830Z,11.63
2022-12-05T00:23:53.108Z,11.02
2022-12-05T00:26:20.181Z,11.48
2022-12-05T00:28:47.196Z,10.60
2022-12-05T00:31:17.377Z,11.88
2022-12-05T00:33:44.847Z,11.68
2022-12-05T00:36:16.636Z,12.63
2022-12-05T00:38:43.586Z,12.55
2022-12-05T00:41:15.836Z,12.68
2022-12-05T00:43:42.842Z,12.10
2022-12-05T00:46:15.371Z,13.65
2022-12-05T00:48:42.377Z,13.52
2022-12-05T00:51:21.401Z,11.95
2022-12-05T00:53:48.226Z,12.95
2022-12-05T00:56:18.916Z,12.55
2022-12-05T00:58:46.062Z,11.52
2022-12-05T01:01:19.917Z,12.57
2022-12-05T01:03:47.923Z,11.50
2022-12-05T01:06:15.940Z,12.07
2022-12-05T01:08:43.536Z,13.00
2022-12-05T01:11:11.100Z,12.95
2022-12-05T01:13:37.836Z,11.57
2022-12-05T01:16:05.029Z,12.80
2022-12-05T01:18:31.956Z,12.13
2022-12-05T01:20:58.520Z,12.80
2022-12-05T01:23:25.067Z,11.93
2022-12-05T01:25:52.751Z,12.57
2022-12-05T01:28:19.789Z,12.73
2022-12-05T01:30:48.603Z,12.23
2022-12-05T01:33:15.622Z,11.93
2022-12-05T01:35:43.005Z,12.20
2022-12-05T01:38:12.078Z,14.40
2022-12-05T01:40:39.057Z,14.75
2022-12-05T01:43:15.002Z,14.95
2022-12-05T01:45:44.413Z,12.80
2022-12-05T01:48:20.610Z,13.93
2022-12-05T01:50:49.325Z,14.35
2022-12-05T01:53:16.754Z,13.55
2022-12-05T01:55:45.685Z,14.00
2022-12-05T01:58:13.206Z,15.05
2022-12-05T02:00:40.268Z,14.60
2022-12-05T02:03:09.378Z,16.80
2022-12-05T02:05:37.302Z,14.27
2022-12-05T02:08:07.734Z,14.75
2022-12-05T02:10:41.710Z,16.10
2022-12-05T02:13:31.876Z,15.98
2022-12-05T02:16:04.120Z,14.27
2022-12-05T02:18:53.185Z,15.82
2022-12-05T02:21:49.222Z,15.25
2022-12-05T02:24:30.631Z,15.10
2022-12-05T02:27:27.379Z,15.95
2022-12-05T02:30:00.641Z,16.85
2022-12-05T02:32:47.770Z,17.13
2022-12-05T02:35:50.868Z,16.85
2022-12-05T02:38:20.479Z,16.35
2022-12-05T02:41:08.387Z,17.25
2022-12-05T02:43:40.841Z,17.10
2022-12-05T02:46:15.062Z,14.45
2022-12-05T02:48:45.858Z,16.13
2022-12-05T02:51:17.026Z,15.50
2022-12-05T02:53:45.534Z,19.00
2022-12-05T02:56:12.860Z,17.90
2022-12-05T02:58:45.637Z,16.35
2022-12-05T03:01:12.456Z,18.27
2022-12-05T03:03:39.414Z,16.30
2022-12-05T03:06:22.031Z,15.07
2022-12-05T03:08:54.299Z,20.13
2022-12-05T03:11:20.923Z,17.92
2022-12-05T03:13:58.277Z,20.13
2022-12-05T03:16:37.138Z,18.80
2022-12-05T03:19:12.016Z,17.08
2022-12-05T03:21:49.264Z,18.85
2022-12-05T03:24:16.349Z,19.20
2022-12-05T03:27:07.064Z,19.30
2022-12-05T03:29:50.323Z,19.67
2022-12-05T03:32:26.661Z,18.98
2022-12-05T03:35:25.299Z,18.88
2022-12-05T03:38:06.992Z,18.00
2022-12-05T03:41:07.908Z,17.90
2022-12-05T03:43:49.533Z,19.90
2022-12-05T03:46:31.113Z,17.85
2022-12-05T03:49:19.349Z,17.15
2022-12-05T03:52:22.526Z,19.50
2022-12-05T03:54:56.641Z,19.57
2022-12-05T03:57:45.116Z,18.83
2022-12-05T04:00:18.561Z,18.35
2022-12-05T04:02:49.568Z,19.13
2022-12-05T04:05:24.209Z,20.40
2022-12-05T04:08:05.380Z,18.43
2022-12-05T04:10:48.527Z,19.50
2022-12-05T04:13:32.767Z,18.60
2022-12-05T04:16:26.637Z,17.45
2022-12-05T04:19:05.217Z,18.88
2022-12-05T04:21:38.923Z,19.45
2022-12-05T04:24:33.417Z,18.60
2022-12-05T04:27:27.947Z,17.40
2022-12-05T04:30:12.082Z,18.73
2022-12-05T04:32:57.718Z,18.67
2022-12-05T04:35:46.407Z,17.13
2022-12-05T04:38:19.823Z,16.55
2022-12-05T04:40:59.604Z,17.73
2022-12-05T04:43:28.843Z,18.35
2022-12-05T04:45:58.466Z,17.98
2022-12-05T04:48:27.896Z,19.20
2022-12-05T04:50:56.947Z,19.55
2022-12-05T04:53:29.463Z,16.05
2022-12-05T04:55:59.541Z,17.65
2022-12-05T04:58:28.544Z,18.48
2022-12-05T05:01:11.419Z,19.70
2022-12-05T05:03:53.036Z,19.38
2022-12-05T05:06:19.605Z,16.17
2022-12-05T05:08:55.465Z,18.23
2022-12-05T05:11:28.075Z,16.58
2022-12-05T05:13:55.328Z,18.35
2022-12-05T05:16:25.668Z,15.95
2022-12-05T05:18:53.354Z,18.30
2022-12-05T05:21:23.559Z,15.93
2022-12-05T05:23:50.355Z,16.75
2022-12-05T05:26:17.627Z,19.33
2022-12-05T05:28:45.152Z,16.05
2022-12-05T05:31:11.807Z,16.85
2022-12-05T05:33:38.406Z,17.60
2022-12-05T05:36:10.908Z,16.15
2022-12-05T05:38:39.627Z,16.52
2022-12-05T05:41:06.840Z,15.77
2022-12-05T05:43:33.357Z,16.35
2022-12-05T05:46:04.790Z,15.85
2022-12-05T05:48:31.347Z,15.18
2022-12-05T05:51:02.749Z,16.90
2022-12-05T05:53:29.457Z,12.55
2022-12-05T05:55:55.976Z,16.35
2022-12-05T05:58:22.779Z,11.73
2022-12-05T06:00:49.540Z,17.23
2022-12-05T06:03:16.479Z,14.85
2022-12-05T06:05:43.123Z,14.75
2022-12-05T06:08:09.788Z,15.80
2022-12-05T06:10:38.905Z,15.85
2022-12-05T06:13:05.457Z,16.00
2022-12-05T06:15:31.957Z,16.35
2022-12-05T06:17:58.828Z,12.50
2022-12-05T06:20:25.411Z,15.95
2022-12-05T06:22:51.948Z,16.35
2022-12-05T06:25:18.561Z,15.23
2022-12-05T06:27:45.060Z,15.05
2022-12-05T06:30:11.943Z,12.98
2022-12-05T06:32:38.491Z,16.45
2022-12-05T06:35:15.117Z,16.48
2022-12-05T06:37:43.426Z,15.75
2022-12-05T06:40:11.733Z,15.98
2022-12-05T06:42:38.284Z,14.18
2022-12-05T06:45:05.991Z,16.55
2022-12-05T06:47:32.532Z,13.75
2022-12-05T06:49:59.767Z,17.30
2022-12-05T06:52:26.603Z,15.27
2022-12-05T06:54:53.184Z,15.77
2022-12-05T06:57:19.735Z,17.42
2022-12-05T06:59:46.262Z,16.88
2022-12-05T07:02:13.630Z,15.35
2022-12-05T07:04:40.164Z,15.48
2022-12-05T07:07:07.026Z,15.18
2022-12-05T07:09:51.444Z,15.05
2022-12-05T07:12:19.358Z,14.40
2022-12-05T07:14:48.597Z,15.18
2022-12-05T07:17:17.498Z,15.52
2022-12-05T07:19:44.313Z,15.63
2022-12-05T07:22:15.512Z,14.55
2022-12-05T07:24:43.142Z,14.32
2022-12-05T07:27:09.676Z,15.15
2022-12-05T07:29:36.250Z,15.23
2022-12-05T07:32:03.590Z,14.77
2022-12-05T07:34:30.459Z,16.83
2022-12-05T07:36:57.077Z,12.65
2022-12-05T07:39:23.628Z,13.32
2022-12-05T07:41:50.159Z,14.38
2022-12-05T07:44:17.009Z,14.00
2022-12-05T07:46:43.629Z,14.20
2022-12-05T07:49:10.201Z,13.57
2022-12-05T07:51:36.838Z,14.77
2022-12-05T07:54:03.872Z,13.10
2022-12-05T07:56:30.424Z,10.65
2022-12-05T07:58:57.046Z,11.80
2022-12-05T08:01:26.294Z,13.52
2022-12-05T08:03:54.697Z,10.77
2022-12-05T08:06:24.491Z,12.45
2022-12-05T08:08:51.789Z,14.07
2022-12-05T08:11:37.951Z,13.02
2022-12-05T08:14:05.683Z,13.88
2022-12-05T08:16:32.800Z,12.40
2022-12-05T08:19:05.720Z,14.18
2022-12-05T08:21:33.034Z,11.95
2022-12-05T08:23:59.579Z,12.88
2022-12-05T08:26:28.709Z,13.35
2022-12-05T08:29:01.340Z,12.57
2022-12-05T08:31:29.926Z,14.15
2022-12-05T08:33:59.362Z,11.52
2022-12-05T08:36:28.244Z,13.70
2022-12-05T08:39:04.328Z,12.00
2022-12-05T08:41:31.418Z,11.95
2022-12-05T08:44:00.358Z,11.88
2022-12-05T08:46:27.049Z,13.07
2022-12-05T08:48:53.628Z,12.45
2022-12-05T08:51:20.180Z,12.27
2022-12-05T08:53:46.724Z,13.13
2022-12-05T08:56:13.835Z,12.93
2022-12-05T08:58:41.137Z,11.45
2022-12-05T09:01:13.704Z,13.52
2022-12-05T09:03:46.068Z,11.93
2022-12-05T09:06:22.770Z,11.77
2022-12-05T09:08:54.441Z,11.90
2022-12-05T09:11:27.261Z,11.65
2022-12-05T09:13:55.559Z,13.85
2022-12-05T09:16:35.262Z,13.35
2022-12-05T09:19:04.549Z,12.73
2022-12-05T09:21:32.114Z,12.98
2022-12-05T09:23:59.933Z,13.75
2022-12-05T09:26:28.558Z,13.55
2022-12-05T09:28:55.073Z,13.45
2022-12-05T09:31:23.883Z,13.43
2022-12-05T09:33:51.604Z,13.55
2022-12-05T09:36:20.851Z,13.68
2022-12-05T09:38:47.526Z,13.60
2022-12-05T09:41:57.337Z,11.82
2022-12-05T09:44:45.464Z,12.90
2022-12-05T09:47:17.715Z,13.60
2022-12-05T09:50:16.581Z,13.30
2022-12-05T09:53:09.308Z,12.02
2022-12-05T09:55:49.384Z,13.52
2022-12-05T09:58:25.905Z,13.60
2022-12-05T10:00:59.802Z,14.38
2022-12-05T10:03:35.966Z,13.65
2022-12-05T10:06:27.339Z,14.77
2022-12-05T10:09:15.217Z,13.73
2022-12-05T10:11:59.800Z,14.20
2022-12-05T10:14:44.394Z,14.40
2022-12-05T10:17:23.717Z,14.00
2022-12-05T10:19:53.941Z,13.30
2022-12-05T10:22:28.809Z,14.40
2022-12-05T10:25:00.757Z,13.95
2022-12-05T10:27:39.561Z,14.07
2022-12-05T10:30:26.728Z,11.95
2022-12-05T10:32:58.991Z,14.40
2022-12-05T10:35:25.507Z,15.10
2022-12-05T10:37:55.478Z,15.30
2022-12-05T10:40:22.524Z,13.43
2022-12-05T10:42:50.635Z,14.27
2022-12-05T10:45:20.774Z,12.63
2022-12-05T10:47:48.978Z,14.65
2022-12-05T10:50:36.511Z,12.95
2022-12-05T10:53:05.055Z,14.38
2022-12-05T10:55:36.985Z,13.48
2022-12-05T10:58:18.433Z,13.38
2022-12-05T11:00:49.010Z,12.88
2022-12-05T11:03:35.679Z,14.15
2022-12-05T11:06:16.073Z,12.88
2022-12-05T11:09:03.716Z,12.70
2022-12-05T11:11:33.387Z,11.68
2022-12-05T11:14:05.676Z,13.48
2022-12-05T11:16:37.396Z,13.35
2022-12-05T11:19:37.533Z,13.50
2022-12-05T11:22:05.753Z,11.93
2022-12-05T11:24:35.631Z,13.27
2022-12-05T11:27:17.231Z,11.55
2022-12-05T11:29:57.691Z,12.48
2022-12-05T11:32:26.832Z,10.70
2022-12-05T11:35:01.733Z,10.75
2022-12-05T11:37:35.447Z,11.48
2022-12-05T11:40:03.380Z,11.93
2022-12-05T11:43:15.173Z,10.55
2022-12-05T11:45:50.102Z,10.55
2022-12-05T11:48:35.003Z,11.85
2022-12-05T11:51:22.838Z,11.50
2022-12-05T11:54:25.953Z,10.55
2022-12-05T11:57:32.772Z,10.23
2022-12-05T12:00:21.353Z,9.13
2022-12-05T12:02:58.846Z,9.57
2022-12-05T12:05:39.698Z,10.20
2022-12-05T12:08:27.735Z,9.30
2022-12-05T12:11:13.035Z,9.38
2022-12-05T12:14:01.825Z,10.13
2022-12-05T12:16:49.743Z,11.10
2022-12-05T12:19:37.495Z,9.18
2022-12-05T12:22:41.209Z,9.43
2022-12-05T12:25:42.756Z,7.82
2022-12-05T12:28:53.960Z,8.85
2022-12-05T12:31:23.209Z,9.52
2022-12-05T12:33:58.285Z,9.40
2022-12-05T12:36:33.021Z,7.82
2022-12-05T12:39:08.439Z,8.27
2022-12-05T12:42:04.307Z,9.18
2022-12-05T12:44:39.711Z,8.15
2022-12-05T12:47:18.169Z,8.73
2022-12-05T12:49:56.546Z,8.77
2022-12-05T12:52:28.059Z,7.30
2022-12-05T12:55:16.222Z,9.73
2022-12-05T12:57:55.050Z,10.00
2022-12-05T13:00:51.385Z,8.80
2022-12-05T13:03:25.242Z,10.18
2022-12-05T13:06:07.467Z,8.80
2022-12-05T13:08:37.434Z,8.40
2022-12-05T13:11:08.448Z,8.32
2022-12-05T13:13:40.669Z,8.90
2022-12-05T13:16:09.521Z,9.55
2022-12-05T13:18:36.313Z,9.70
2022-12-05T13:21:08.466Z,8.55
2022-12-05T13:23:49.304Z,8.77
2022-12-05T13:26:17.015Z,8.40
2022-12-05T13:28:58.240Z,8.05
2022-12-05T13:31:42.596Z,8.40
2022-12-05T13:34:48.053Z,7.13
2022-12-05T13:37:48.837Z,9.43
2022-12-05T13:40:48.096Z,8.85
2022-12-05T13:43:19.512Z,7.68
2022-12-05T13:46:09.563Z,7.28
2022-12-05T13:48:42.627Z,7.63
2022-12-05T13:51:14.544Z,7.05
2022-12-05T13:53:43.838Z,6.50
2022-12-05T13:56:13.393Z,6.57
2022-12-05T13:58:47.953Z,7.47
2022-12-05T14:01:39.308Z,7.53
2022-12-05T14:04:24.918Z,7.43
2022-12-05T14:06:51.355Z,7.50
2022-12-05T14:09:17.844Z,8.13
2022-12-05T14:12:12.469Z,7.47
2022-12-05T14:14:57.331Z,7.72
2022-12-05T14:17:30.462Z,7.63
2022-12-05T14:20:05.658Z,7.75
2022-12-05T14:23:02.669Z,6.32
2022-12-05T14:25:58.207Z,6.75
2022-12-05T14:28:47.751Z,7.03
2022-12-05T14:31:34.301Z,6.22
2022-12-05T14:34:22.320Z,5.80
2022-12-05T14:37:04.876Z,5.70
2022-12-05T14:39:40.437Z,6.80
2022-12-05T14:42:25.273Z,5.68
2022-12-05T14:44:56.116Z,5.65
2022-12-05T14:47:28.995Z,6.32
2022-12-05T14:50:33.340Z,5.75
2022-12-05T14:53:15.178Z,5.57
2022-12-05T14:55:44.517Z,6.20
2022-12-05T14:58:43.513Z,6.05
2022-12-05T15:01:31.943Z,6.22
2022-12-05T15:04:14.942Z,6.78
2022-12-05T15:06:44.592Z,6.05
2022-12-05T15:09:37.131Z,5.93
2022-12-05T15:12:09.814Z,5.10
2022-12-05T15:14:44.287Z,5.50
2022-12-05T15:17:17.527Z,5.50
2022-12-05T15:19:56.277Z,5.88
2022-12-05T15:22:26.804Z,5.53
2022-12-05T15:24:53.383Z,6.65
2022-12-05T15:27:20.313Z,5.93
2022-12-05T15:29:46.914Z,5.38
2022-12-05T15:32:13.357Z,6.05
2022-12-05T15:34:45.561Z,5.82
2022-12-05T15:37:14.728Z,5.40
2022-12-05T15:39:56.488Z,5.00
2022-12-05T15:42:31.352Z,5.00
2022-12-05T15:45:30.535Z,6.60
2022-12-05T15:48:11.632Z,5.65
2022-12-05T15:50:47.566Z,5.72
2022-12-05T15:53:28.891Z,6.13
2022-12-05T15:56:27.748Z,5.78
2022-12-05T15:59:11.516Z,5.57
2022-12-05T16:01:46.661Z,6.55
2022-12-05T16:04:18.698Z,4.97
2022-12-05T16:06:45.210Z,5.47
2022-12-05T16:09:18.811Z,5.78
2022-12-05T16:12:02.460Z,6.78
2022-12-05T16:17:26.283Z,5.80
2022-12-05T16:19:53.014Z,7.00
2022-12-05T16:22:23.323Z,6.70
2022-12-05T16:25:01.130Z,6.32
2022-12-05T16:27:32.832Z,6.70
2022-12-05T16:30:22.266Z,6.40
2022-12-05T16:32:50.733Z,5.97
2022-12-05T16:35:45.647Z,5.97
2022-12-05T16:38:17.931Z,6.45
2022-12-05T16:40:52.472Z,6.70
2022-12-05T16:43:25.709Z,7.30
2022-12-05T16:45:54.226Z,6.18
2022-12-05T16:48:31.404Z,6.38
2022-12-05T16:51:13.449Z,6.85
2022-12-05T16:53:57.918Z,6.70
2022-12-05T16:56:30.849Z,6.40
2022-12-05T16:58:58.346Z,6.75
2022-12-05T17:01:27.206Z,5.80
2022-12-05T17:03:55.439Z,7.38
2022-12-05T17:06:24.657Z,7.30
2022-12-05T17:08:52.296Z,6.72
2022-12-05T17:11:24.762Z,7.40
2022-12-05T17:13:52.144Z,7.65
2022-12-05T17:16:20.579Z,7.18
2022-12-05T17:18:47.579Z,7.13
2022-12-05T17:21:16.615Z,7.55
2022-12-05T17:23:47.867Z,7.32
2022-12-05T17:26:16.766Z,6.45
2022-12-05T17:28:43.398Z,6.57
2022-12-05T17:31:14.798Z,6.90
2022-12-05T17:33:41.440Z,7.30
2022-12-05T17:36:08.370Z,7.85
2022-12-05T17:38:34.922Z,7.63
2022-12-05T17:41:06.767Z,6.35
2022-12-05T17:43:34.243Z,7.10
2022-12-05T17:46:01.976Z,7.10
2022-12-05T17:48:28.733Z,6.25
2022-12-05T17:50:57.870Z,6.95
2022-12-05T17:53:24.840Z,7.25
2022-12-05T17:55:52.128Z,6.00
2022-12-05T17:58:18.909Z,5.78
2022-12-05T18:00:46.897Z,6.13
2022-12-05T18:03:16.981Z,6.47
2022-12-05T18:05:44.838Z,7.00
2022-12-05T18:08:11.861Z,6.68
2022-12-05T18:10:42.807Z,6.28
2022-12-05T18:13:09.994Z,6.20
2022-12-05T18:15:42.471Z,6.97
2022-12-05T18:18:15.130Z,6.63
2022-12-05T18:20:41.858Z,6.10
2022-12-05T18:23:09.530Z,6.03
2022-12-05T18:25:36.043Z,6.80
2022-12-05T18:28:02.604Z,6.10
2022-12-05T18:30:29.072Z,6.20
2022-12-05T18:32:55.715Z,6.18
2022-12-05T18:35:40.275Z,6.28
2022-12-05T18:38:11.473Z,6.93
2022-12-05T18:40:38.425Z,5.53
2022-12-05T18:43:04.921Z,6.10
2022-12-05T18:45:31.549Z,6.13
2022-12-05T18:48:09.826Z,5.43
2022-12-05T18:50:44.954Z,5.78
2022-12-05T18:53:11.431Z,6.10
2022-12-05T18:55:58.321Z,5.47
2022-12-05T18:58:24.489Z,5.97
2022-12-05T19:00:51.065Z,5.93
2022-12-05T19:03:17.568Z,5.70
2022-12-05T19:05:44.059Z,5.90
2022-12-05T19:08:10.589Z,5.10
2022-12-05T19:10:37.207Z,5.07
2022-12-05T19:13:03.705Z,4.93
2022-12-05T19:15:30.266Z,5.60
2022-12-05T19:17:56.779Z,5.80
2022-12-05T19:20:23.290Z,5.15
2022-12-05T19:22:49.890Z,4.90
2022-12-05T19:25:16.538Z,5.20
2022-12-05T19:27:43.077Z,4.85
2022-12-05T19:30:10.616Z,4.85
2022-12-05T19:32:40.520Z,4.75
2022-12-05T19:35:08.005Z,5.07
2022-12-05T19:37:35.510Z,5.65
2022-12-05T19:40:02.155Z,5.07
2022-12-05T19:42:29.652Z,5.15
2022-12-05T19:44:56.219Z,4.93
2022-12-05T19:47:22.801Z,4.88
2022-12-05T19:49:49.484Z,5.72
2022-12-05T19:52:17.924Z,4.85
2022-12-05T19:54:45.266Z,4.85
2022-12-05T19:57:12.140Z,5.15
2022-12-05T19:59:38.755Z,5.38
2022-12-05T20:02:05.743Z,5.70
2022-12-05T20:04:32.557Z,4.70
2022-12-05T20:07:00.257Z,5.15
2022-12-05T20:09:26.863Z,4.60
2022-12-05T20:11:55.410Z,4.75
2022-12-05T20:14:23.741Z,4.63
2022-12-05T20:16:50.523Z,4.88
2022-12-05T20:19:17.357Z,5.40
2022-12-05T20:21:44.605Z,5.00
2022-12-05T20:24:11.758Z,4.93
2022-12-05T20:26:41.309Z,4.67
2022-12-05T20:29:08.575Z,4.90
2022-12-05T20:31:40.255Z,4.53
2022-12-05T20:34:09.389Z,4.55
2022-12-05T20:36:36.537Z,4.75
2022-12-05T20:39:10.436Z,4.30
2022-12-05T20:41:37.046Z,4.13
2022-12-05T20:44:05.674Z,4.72
2022-12-05T20:46:32.795Z,4.20
2022-12-05T20:48:59.669Z,4.57
2022-12-05T20:51:34.150Z,4.30
2022-12-05T20:54:03.914Z,4.90
2022-12-05T20:56:32.876Z,4.82
2022-12-05T20:59:02.602Z,5.03
2022-12-05T21:01:31.073Z,5.63
2022-12-05T21:03:57.819Z,4.93
2022-12-05T21:06:27.024Z,5.18
2022-12-05T21:08:54.482Z,4.85
2022-12-05T21:11:22.018Z,5.45
2022-12-05T21:13:48.678Z,4.97
2022-12-05T21:16:18.591Z,4.97
2022-12-05T21:18:46.199Z,4.72
2022-12-05T21:21:17.543Z,4.72
2022-12-05T21:23:46.235Z,4.80
2022-12-05T21:26:16.305Z,4.75
2022-12-05T21:28:44.531Z,4.93
2022-12-05T21:31:15.623Z,4.65
2022-12-05T21:33:46.005Z,5.32
2022-12-05T21:36:12.576Z,4.32
2022-12-05T21:38:39.295Z,4.68
2022-12-05T21:41:06.690Z,4.93
2022-12-05T21:43:34.926Z,5.45
2022-12-05T21:46:01.625Z,4.43
2022-12-05T21:48:28.243Z,4.68
2022-12-05T21:50:55.012Z,4.00
2022-12-05T21:53:21.567Z,4.83
2022-12-05T21:55:48.508Z,4.30
2022-12-05T21:58:15.022Z,4.30
2022-12-05T22:00:42.631Z,4.25
2022-12-05T22:03:14.465Z,4.30
2022-12-05T22:05:41.097Z,3.77
2022-12-05T22:08:07.908Z,4.07
2022-12-05T22:10:35.129Z,3.90
2022-12-05T22:13:01.681Z,3.90
2022-12-05T22:15:28.190Z,3.60
2022-12-05T22:17:54.671Z,4.00
2022-12-05T22:20:21.382Z,4.18
2022-12-05T22:22:47.950Z,4.10
2022-12-05T22:25:15.097Z,3.80
2022-12-05T22:27:41.887Z,3.85
2022-12-05T22:30:08.890Z,3.83
2022-12-05T22:32:35.393Z,3.80
2022-12-05T22:35:03.955Z,4.03
2022-12-05T22:37:30.968Z,4.22
2022-12-05T22:39:57.908Z,4.30
2022-12-05T22:42:26.681Z,3.37
2022-12-05T22:44:53.617Z,4.10
2022-12-05T22:47:20.124Z,4.30
2022-12-05T22:49:46.832Z,3.90
2022-12-05T22:52:13.359Z,4.35
2022-12-05T22:54:39.882Z,4.77
2022-12-05T22:57:06.457Z,4.50
2022-12-05T22:59:33.045Z,5.15
2022-12-05T23:01:59.656Z,4.70
2022-12-05T23:04:26.255Z,4.68
2022-12-05T23:06:52.965Z,4.87
2022-12-05T23:09:20.605Z,4.15
2022-12-05T23:11:49.658Z,4.68
2022-12-05T23:14:16.209Z,5.40
2022-12-05T23:16:42.816Z,5.38
2022-12-05T23:19:09.594Z,4.73
2022-12-05T23:21:39.217Z,5.68
2022-12-05T23:24:11.240Z,5.68
2022-12-05T23:26:41.435Z,4.72
2022-12-05T23:29:08.523Z,5.35
2022-12-05T23:31:35.202Z,5.13
2022-12-05T23:34:03.754Z,5.38
2022-12-05T23:36:31.856Z,4.90
2022-12-05T23:38:58.411Z,5.05
2022-12-05T23:41:26.185Z,4.50
2022-12-05T23:43:53.560Z,5.07
2022-12-05T23:46:22.725Z,5.03
2022-12-05T23:48:49.997Z,5.07
2022-12-05T23:51:22.549Z,4.80
2022-12-05T23:53:53.752Z,5.18
2022-12-05T23:56:23.424Z,4.53
2022-12-05T23:58:50.750Z,4.50
